sensor_id;sensor_type;location;lat;lon;timestamp;temperature;humidity
20380;DHT22;10349;48.666;8.948;2023-03-21T00:01:04;8.30;99.90
20380;DHT22;10349;48.666;8.948;2023-03-21T00:03:31;8.30;99.90
20380;DHT22;10349;48.666;8.948;2023-03-21T00:06:03;8.30;99.90
20380;DHT22;10349;48.666;8.948;2023-03-21T00:08:29;8.40;99.90
20380;DHT22;10349;48.666;8.948;2023-03-21T00:11:01;8.40;99.90
20380;DHT22;10349;48.666;8.948;2023-03-21T00:13:28;8.40;99.90
20380;DHT22;10349;48.666;8.948;2023-03-21T00:16:02;8.40;99.90
20380;DHT22;10349;48.666;8.948;2023-03-21T00:18:27;8.40;99.90
20380;DHT22;10349;48.666;8.948;2023-03-21T00:21:02;8.40;99.90
20380;DHT22;10349;48.666;8.948;2023-03-21T00:23:29;8.40;99.90
20380;DHT22;10349;48.666;8.948;2023-03-21T00:25:56;8.40;99.90
20380;DHT22;10349;48.666;8.948;2023-03-21T00:28:21;8.30;99.90
20380;DHT22;10349;48.666;8.948;2023-03-21T00:30:48;8.30;99.90
20380;DHT22;10349;48.666;8.948;2023-03-21T00:33:14;8.30;99.90
20380;DHT22;10349;48.666;8.948;2023-03-21T00:35:40;8.30;99.90
20380;DHT22;10349;48.666;8.948;2023-03-21T00:38:13;8.40;99.90
20380;DHT22;10349;48.666;8.948;2023-03-21T00:40:39;8.30;99.90
20380;DHT22;10349;48.666;8.948;2023-03-21T00:43:07;8.30;99.90
20380;DHT22;10349;48.666;8.948;2023-03-21T00:45:33;8.30;99.90
20380;DHT22;10349;48.666;8.948;2023-03-21T00:47:59;8.30;99.90
20380;DHT22;10349;48.666;8.948;2023-03-21T00:50:27;8.30;99.90
20380;DHT22;10349;48.666;8.948;2023-03-21T00:52:53;8.30;99.90
20380;DHT22;10349;48.666;8.948;2023-03-21T00:55:19;8.40;99.90
20380;DHT22;10349;48.666;8.948;2023-03-21T00:57:45;8.30;99.90
20380;DHT22;10349;48.666;8.948;2023-03-21T01:00:14;8.30;99.90
20380;DHT22;10349;48.666;8.948;2023-03-21T01:02:40;8.30;99.90
20380;DHT22;10349;48.666;8.948;2023-03-21T01:05:22;8.20;99.90
20380;DHT22;10349;48.666;8.948;2023-03-21T01:08:09;8.30;99.90
20380;DHT22;10349;48.666;8.948;2023-03-21T01:10:41;8.20;99.90
20380;DHT22;10349;48.666;8.948;2023-03-21T01:13:08;8.20;99.90
20380;DHT22;10349;48.666;8.948;2023-03-21T01:15:35;8.10;99.90
20380;DHT22;10349;48.666;8.948;2023-03-21T01:18:01;8.20;99.90
20380;DHT22;10349;48.666;8.948;2023-03-21T01:20:27;8.10;99.90
20380;DHT22;10349;48.666;8.948;2023-03-21T01:22:53;8.00;99.90
20380;DHT22;10349;48.666;8.948;2023-03-21T01:25:19;8.00;99.90
20380;DHT22;10349;48.666;8.948;2023-03-21T01:27:45;8.00;99.90
20380;DHT22;10349;48.666;8.948;2023-03-21T01:30:11;8.10;99.90
20380;DHT22;10349;48.666;8.948;2023-03-21T01:32:37;8.10;99.90
20380;DHT22;10349;48.666;8.948;2023-03-21T01:35:03;8.10;99.90
20380;DHT22;10349;48.666;8.948;2023-03-21T01:37:29;8.10;99.90
20380;DHT22;10349;48.666;8.948;2023-03-21T01:39:55;8.00;99.90
20380;DHT22;10349;48.666;8.948;2023-03-21T01:42:21;8.00;99.90
20380;DHT22;10349;48.666;8.948;2023-03-21T01:45:03;8.00;99.90
20380;DHT22;10349;48.666;8.948;2023-03-21T01:47:42;7.90;99.90
20380;DHT22;10349;48.666;8.948;2023-03-21T01:50:21;7.90;99.90
20380;DHT22;10349;48.666;8.948;2023-03-21T01:52:57;7.90;99.90
20380;DHT22;10349;48.666;8.948;2023-03-21T01:55:26;7.90;99.90
20380;DHT22;10349;48.666;8.948;2023-03-21T01:57:58;7.90;99.90
20380;DHT22;10349;48.666;8.948;2023-03-21T02:00:25;7.90;99.90
20380;DHT22;10349;48.666;8.948;2023-03-21T02:03:06;7.80;99.90
20380;DHT22;10349;48.666;8.948;2023-03-21T02:06:00;7.80;99.90
20380;DHT22;10349;48.666;8.948;2023-03-21T02:08:31;7.70;99.90
20380;DHT22;10349;48.666;8.948;2023-03-21T02:10:59;7.70;99.90
20380;DHT22;10349;48.666;8.948;2023-03-21T02:13:35;7.60;99.90
20380;DHT22;10349;48.666;8.948;2023-03-21T02:16:16;7.60;99.90
20380;DHT22;10349;48.666;8.948;2023-03-21T02:18:57;7.60;99.90
20380;DHT22;10349;48.666;8.948;2023-03-21T02:21:51;7.60;99.90
20380;DHT22;10349;48.666;8.948;2023-03-21T02:24:54;7.60;99.90
20380;DHT22;10349;48.666;8.948;2023-03-21T02:27:28;7.60;99.90
20380;DHT22;10349;48.666;8.948;2023-03-21T02:32:40;7.60;99.90
20380;DHT22;10349;48.666;8.948;2023-03-21T02:40:51;7.60;99.90
20380;DHT22;10349;48.666;8.948;2023-03-21T02:43:36;7.60;99.90
20380;DHT22;10349;48.666;8.948;2023-03-21T02:46:31;7.60;99.90
20380;DHT22;10349;48.666;8.948;2023-03-21T02:49:23;7.60;99.90
20380;DHT22;10349;48.666;8.948;2023-03-21T02:51:50;7.60;99.90
20380;DHT22;10349;48.666;8.948;2023-03-21T02:54:18;7.70;99.90
20380;DHT22;10349;48.666;8.948;2023-03-21T02:56:48;7.50;99.90
20380;DHT22;10349;48.666;8.948;2023-03-21T02:59:16;7.50;99.90
20380;DHT22;10349;48.666;8.948;2023-03-21T03:01:43;7.60;99.90
20380;DHT22;10349;48.666;8.948;2023-03-21T03:04:26;7.50;99.90
20380;DHT22;10349;48.666;8.948;2023-03-21T03:15:04;7.40;99.90
20380;DHT22;10349;48.666;8.948;2023-03-21T03:17:48;7.40;99.90
20380;DHT22;10349;48.666;8.948;2023-03-21T03:25:32;7.40;99.90
20380;DHT22;10349;48.666;8.948;2023-03-21T03:28:02;7.30;99.90
20380;DHT22;10349;48.666;8.948;2023-03-21T03:30:29;7.20;99.90
20380;DHT22;10349;48.666;8.948;2023-03-21T03:32:58;7.20;99.90
20380;DHT22;10349;48.666;8.948;2023-03-21T03:35:31;7.10;99.90
20380;DHT22;10349;48.666;8.948;2023-03-21T03:38:00;7.10;99.90
20380;DHT22;10349;48.666;8.948;2023-03-21T03:40:44;7.10;99.90
20380;DHT22;10349;48.666;8.948;2023-03-21T03:43:33;7.10;99.90
20380;DHT22;10349;48.666;8.948;2023-03-21T03:46:08;7.10;99.90
20380;DHT22;10349;48.666;8.948;2023-03-21T03:48:46;7.10;99.90
20380;DHT22;10349;48.666;8.948;2023-03-21T03:51:33;7.10;99.90
20380;DHT22;10349;48.666;8.948;2023-03-21T03:54:22;7.10;99.90
20380;DHT22;10349;48.666;8.948;2023-03-21T03:56:50;7.10;99.90
20380;DHT22;10349;48.666;8.948;2023-03-21T03:59:16;7.10;99.90
20380;DHT22;10349;48.666;8.948;2023-03-21T04:02:15;7.10;99.90
20380;DHT22;10349;48.666;8.948;2023-03-21T04:04:41;7.00;99.90
20380;DHT22;10349;48.666;8.948;2023-03-21T04:07:07;7.10;99.90
20380;DHT22;10349;48.666;8.948;2023-03-21T04:09:35;7.10;99.90
20380;DHT22;10349;48.666;8.948;2023-03-21T04:12:01;7.10;99.90
20380;DHT22;10349;48.666;8.948;2023-03-21T04:14:28;7.10;99.90
20380;DHT22;10349;48.666;8.948;2023-03-21T04:16:54;7.20;99.90
20380;DHT22;10349;48.666;8.948;2023-03-21T04:19:20;7.00;99.90
20380;DHT22;10349;48.666;8.948;2023-03-21T04:21:46;6.90;99.90
20380;DHT22;10349;48.666;8.948;2023-03-21T04:24:12;6.90;99.90
20380;DHT22;10349;48.666;8.948;2023-03-21T04:26:40;6.80;99.90
20380;DHT22;10349;48.666;8.948;2023-03-21T04:29:22;6.70;99.90
20380;DHT22;10349;48.666;8.948;2023-03-21T04:32:10;6.60;99.90
20380;DHT22;10349;48.666;8.948;2023-03-21T04:34:43;6.50;99.90
20380;DHT22;10349;48.666;8.948;2023-03-21T04:37:17;6.40;99.90
20380;DHT22;10349;48.666;8.948;2023-03-21T04:39:45;6.40;99.90
20380;DHT22;10349;48.666;8.948;2023-03-21T04:42:12;6.40;99.90
20380;DHT22;10349;48.666;8.948;2023-03-21T04:44:46;6.40;99.90
20380;DHT22;10349;48.666;8.948;2023-03-21T04:47:13;6.40;99.90
20380;DHT22;10349;48.666;8.948;2023-03-21T04:49:41;6.40;99.90
20380;DHT22;10349;48.666;8.948;2023-03-21T04:52:09;6.30;99.90
20380;DHT22;10349;48.666;8.948;2023-03-21T04:54:35;6.30;99.90
20380;DHT22;10349;48.666;8.948;2023-03-21T04:57:02;6.20;99.90
20380;DHT22;10349;48.666;8.948;2023-03-21T04:59:29;6.20;99.90
20380;DHT22;10349;48.666;8.948;2023-03-21T05:01:56;6.10;99.90
20380;DHT22;10349;48.666;8.948;2023-03-21T05:04:23;6.00;99.90
20380;DHT22;10349;48.666;8.948;2023-03-21T05:06:51;6.00;99.90
20380;DHT22;10349;48.666;8.948;2023-03-21T05:09:18;6.00;99.90
20380;DHT22;10349;48.666;8.948;2023-03-21T05:11:43;6.00;99.90
20380;DHT22;10349;48.666;8.948;2023-03-21T05:14:15;6.00;99.90
20380;DHT22;10349;48.666;8.948;2023-03-21T05:16:43;6.00;99.90
20380;DHT22;10349;48.666;8.948;2023-03-21T05:19:22;6.00;99.90
20380;DHT22;10349;48.666;8.948;2023-03-21T05:21:49;5.90;99.90
20380;DHT22;10349;48.666;8.948;2023-03-21T05:24:21;5.90;99.90
20380;DHT22;10349;48.666;8.948;2023-03-21T05:26:48;5.90;99.90
20380;DHT22;10349;48.666;8.948;2023-03-21T05:29:20;5.80;99.90
20380;DHT22;10349;48.666;8.948;2023-03-21T05:31:58;5.80;99.90
20380;DHT22;10349;48.666;8.948;2023-03-21T05:34:24;5.80;99.90
20380;DHT22;10349;48.666;8.948;2023-03-21T05:36:52;5.70;99.90
20380;DHT22;10349;48.666;8.948;2023-03-21T05:39:19;5.70;99.90
20380;DHT22;10349;48.666;8.948;2023-03-21T05:41:56;5.70;99.90
20380;DHT22;10349;48.666;8.948;2023-03-21T05:44:23;5.70;99.90
20380;DHT22;10349;48.666;8.948;2023-03-21T05:46:48;5.70;99.90
20380;DHT22;10349;48.666;8.948;2023-03-21T05:49:14;5.60;99.90
20380;DHT22;10349;48.666;8.948;2023-03-21T05:51:41;5.60;99.90
20380;DHT22;10349;48.666;8.948;2023-03-21T05:54:06;5.60;99.90
20380;DHT22;10349;48.666;8.948;2023-03-21T05:56:33;5.50;99.90
20380;DHT22;10349;48.666;8.948;2023-03-21T05:59:03;5.60;99.90
20380;DHT22;10349;48.666;8.948;2023-03-21T06:01:31;5.60;99.90
20380;DHT22;10349;48.666;8.948;2023-03-21T06:04:07;5.60;99.90
20380;DHT22;10349;48.666;8.948;2023-03-21T06:06:34;5.60;99.90
20380;DHT22;10349;48.666;8.948;2023-03-21T06:09:00;5.60;99.90
20380;DHT22;10349;48.666;8.948;2023-03-21T06:11:30;5.60;99.90
20380;DHT22;10349;48.666;8.948;2023-03-21T06:14:15;5.60;99.90
20380;DHT22;10349;48.666;8.948;2023-03-21T06:16:43;5.70;99.90
20380;DHT22;10349;48.666;8.948;2023-03-21T06:19:09;5.80;99.90
20380;DHT22;10349;48.666;8.948;2023-03-21T06:21:44;5.80;99.90
20380;DHT22;10349;48.666;8.948;2023-03-21T06:24:11;5.80;99.90
20380;DHT22;10349;48.666;8.948;2023-03-21T06:26:39;5.90;99.90
20380;DHT22;10349;48.666;8.948;2023-03-21T06:29:07;5.90;99.90
20380;DHT22;10349;48.666;8.948;2023-03-21T06:31:33;5.90;99.90
20380;DHT22;10349;48.666;8.948;2023-03-21T06:34:01;6.00;99.90
20380;DHT22;10349;48.666;8.948;2023-03-21T06:36:27;6.10;99.90
20380;DHT22;10349;48.666;8.948;2023-03-21T06:38:53;6.10;99.90
20380;DHT22;10349;48.666;8.948;2023-03-21T06:41:20;6.10;99.90
20380;DHT22;10349;48.666;8.948;2023-03-21T06:43:59;6.20;99.90
20380;DHT22;10349;48.666;8.948;2023-03-21T06:46:26;6.20;99.90
20380;DHT22;10349;48.666;8.948;2023-03-21T06:48:52;6.30;99.90
20380;DHT22;10349;48.666;8.948;2023-03-21T06:51:17;6.30;99.90
20380;DHT22;10349;48.666;8.948;2023-03-21T06:54:00;6.30;99.90
20380;DHT22;10349;48.666;8.948;2023-03-21T06:56:37;6.40;99.90
20380;DHT22;10349;48.666;8.948;2023-03-21T06:59:04;6.40;99.90
20380;DHT22;10349;48.666;8.948;2023-03-21T07:01:47;6.40;99.90
20380;DHT22;10349;48.666;8.948;2023-03-21T07:04:13;6.50;99.90
20380;DHT22;10349;48.666;8.948;2023-03-21T07:06:39;6.50;99.90
20380;DHT22;10349;48.666;8.948;2023-03-21T07:09:05;6.60;99.90
20380;DHT22;10349;48.666;8.948;2023-03-21T07:11:35;6.70;99.90
20380;DHT22;10349;48.666;8.948;2023-03-21T07:14:02;6.70;99.90
20380;DHT22;10349;48.666;8.948;2023-03-21T07:16:28;6.80;99.90
20380;DHT22;10349;48.666;8.948;2023-03-21T07:18:54;6.80;99.90
20380;DHT22;10349;48.666;8.948;2023-03-21T07:21:20;6.90;99.90
20380;DHT22;10349;48.666;8.948;2023-03-21T07:23:46;6.90;99.90
20380;DHT22;10349;48.666;8.948;2023-03-21T07:26:12;7.00;99.90
20380;DHT22;10349;48.666;8.948;2023-03-21T07:28:38;7.00;99.90
20380;DHT22;10349;48.666;8.948;2023-03-21T07:31:05;7.10;99.90
20380;DHT22;10349;48.666;8.948;2023-03-21T07:33:32;7.10;99.90
20380;DHT22;10349;48.666;8.948;2023-03-21T07:35:59;7.20;99.90
20380;DHT22;10349;48.666;8.948;2023-03-21T07:38:27;7.30;99.90
20380;DHT22;10349;48.666;8.948;2023-03-21T07:40:58;7.30;99.90
20380;DHT22;10349;48.666;8.948;2023-03-21T07:43:24;7.40;99.90
20380;DHT22;10349;48.666;8.948;2023-03-21T07:45:55;7.60;99.90
20380;DHT22;10349;48.666;8.948;2023-03-21T07:48:21;7.80;99.90
20380;DHT22;10349;48.666;8.948;2023-03-21T07:50:48;7.90;99.90
20380;DHT22;10349;48.666;8.948;2023-03-21T07:53:13;8.10;99.90
20380;DHT22;10349;48.666;8.948;2023-03-21T07:55:39;8.30;99.90
20380;DHT22;10349;48.666;8.948;2023-03-21T07:58:05;8.40;99.90
20380;DHT22;10349;48.666;8.948;2023-03-21T08:00:31;8.50;99.90
20380;DHT22;10349;48.666;8.948;2023-03-21T08:02:57;8.60;99.90
20380;DHT22;10349;48.666;8.948;2023-03-21T08:05:28;8.70;99.90
20380;DHT22;10349;48.666;8.948;2023-03-21T08:07:55;8.80;99.90
20380;DHT22;10349;48.666;8.948;2023-03-21T08:10:21;8.90;99.90
20380;DHT22;10349;48.666;8.948;2023-03-21T08:12:47;9.00;99.90
20380;DHT22;10349;48.666;8.948;2023-03-21T08:15:13;9.00;99.90
20380;DHT22;10349;48.666;8.948;2023-03-21T08:17:40;9.10;99.90
20380;DHT22;10349;48.666;8.948;2023-03-21T08:20:07;9.20;99.90
20380;DHT22;10349;48.666;8.948;2023-03-21T08:22:35;9.30;99.90
20380;DHT22;10349;48.666;8.948;2023-03-21T08:25:03;9.30;99.90
20380;DHT22;10349;48.666;8.948;2023-03-21T08:27:30;9.40;99.90
20380;DHT22;10349;48.666;8.948;2023-03-21T08:29:56;9.50;99.90
20380;DHT22;10349;48.666;8.948;2023-03-21T08:32:22;9.60;99.90
20380;DHT22;10349;48.666;8.948;2023-03-21T08:34:58;9.70;99.90
20380;DHT22;10349;48.666;8.948;2023-03-21T08:37:24;9.80;99.90
20380;DHT22;10349;48.666;8.948;2023-03-21T08:39:50;9.90;99.90
20380;DHT22;10349;48.666;8.948;2023-03-21T08:42:16;10.10;99.90
20380;DHT22;10349;48.666;8.948;2023-03-21T08:44:42;10.20;99.90
20380;DHT22;10349;48.666;8.948;2023-03-21T08:47:08;10.20;99.90
20380;DHT22;10349;48.666;8.948;2023-03-21T08:49:36;10.30;99.90
20380;DHT22;10349;48.666;8.948;2023-03-21T08:52:02;10.40;99.90
20380;DHT22;10349;48.666;8.948;2023-03-21T08:54:28;10.50;99.90
20380;DHT22;10349;48.666;8.948;2023-03-21T08:56:54;10.50;99.90
20380;DHT22;10349;48.666;8.948;2023-03-21T08:59:20;10.60;99.90
20380;DHT22;10349;48.666;8.948;2023-03-21T09:01:46;10.70;99.90
20380;DHT22;10349;48.666;8.948;2023-03-21T09:04:12;10.70;99.90
20380;DHT22;10349;48.666;8.948;2023-03-21T09:06:38;10.90;99.90
20380;DHT22;10349;48.666;8.948;2023-03-21T09:09:05;10.90;99.90
20380;DHT22;10349;48.666;8.948;2023-03-21T09:11:33;11.00;99.90
20380;DHT22;10349;48.666;8.948;2023-03-21T09:13:59;11.10;99.90
20380;DHT22;10349;48.666;8.948;2023-03-21T09:16:25;11.20;99.90
20380;DHT22;10349;48.666;8.948;2023-03-21T09:18:50;11.30;99.90
20380;DHT22;10349;48.666;8.948;2023-03-21T09:21:21;11.40;99.90
20380;DHT22;10349;48.666;8.948;2023-03-21T09:23:49;11.50;99.90
20380;DHT22;10349;48.666;8.948;2023-03-21T09:26:17;11.60;99.90
20380;DHT22;10349;48.666;8.948;2023-03-21T09:28:43;11.70;99.90
20380;DHT22;10349;48.666;8.948;2023-03-21T09:31:11;11.80;99.90
20380;DHT22;10349;48.666;8.948;2023-03-21T09:33:38;11.90;99.90
20380;DHT22;10349;48.666;8.948;2023-03-21T09:36:06;12.00;99.90
20380;DHT22;10349;48.666;8.948;2023-03-21T09:38:36;12.10;99.90
20380;DHT22;10349;48.666;8.948;2023-03-21T09:44:10;12.30;99.90
20380;DHT22;10349;48.666;8.948;2023-03-21T09:49:27;12.40;99.90
20380;DHT22;10349;48.666;8.948;2023-03-21T09:51:58;12.40;99.90
20380;DHT22;10349;48.666;8.948;2023-03-21T09:54:37;12.50;99.90
20380;DHT22;10349;48.666;8.948;2023-03-21T09:57:20;12.60;99.90
20380;DHT22;10349;48.666;8.948;2023-03-21T09:59:51;12.80;99.90
20380;DHT22;10349;48.666;8.948;2023-03-21T10:04:58;13.00;99.90
20380;DHT22;10349;48.666;8.948;2023-03-21T10:07:25;13.10;99.90
20380;DHT22;10349;48.666;8.948;2023-03-21T10:09:56;13.10;99.90
20380;DHT22;10349;48.666;8.948;2023-03-21T10:12:24;13.20;99.90
20380;DHT22;10349;48.666;8.948;2023-03-21T10:14:56;13.20;99.90
20380;DHT22;10349;48.666;8.948;2023-03-21T10:17:31;13.20;99.90
20380;DHT22;10349;48.666;8.948;2023-03-21T10:20:21;13.30;99.90
20380;DHT22;10349;48.666;8.948;2023-03-21T10:22:54;13.30;99.90
20380;DHT22;10349;48.666;8.948;2023-03-21T10:25:30;13.40;99.90
20380;DHT22;10349;48.666;8.948;2023-03-21T10:27:56;13.40;99.90
20380;DHT22;10349;48.666;8.948;2023-03-21T10:30:31;13.40;99.90
20380;DHT22;10349;48.666;8.948;2023-03-21T10:33:02;13.30;99.90
20380;DHT22;10349;48.666;8.948;2023-03-21T10:35:31;13.40;99.90
20380;DHT22;10349;48.666;8.948;2023-03-21T10:38:01;13.40;99.90
20380;DHT22;10349;48.666;8.948;2023-03-21T10:40:27;13.30;99.90
20380;DHT22;10349;48.666;8.948;2023-03-21T10:42:55;13.40;99.90
20380;DHT22;10349;48.666;8.948;2023-03-21T10:45:23;13.50;99.90
20380;DHT22;10349;48.666;8.948;2023-03-21T10:47:49;13.50;99.90
20380;DHT22;10349;48.666;8.948;2023-03-21T10:50:18;13.50;99.90
20380;DHT22;10349;48.666;8.948;2023-03-21T10:52:55;13.50;99.90
20380;DHT22;10349;48.666;8.948;2023-03-21T10:55:34;13.50;99.90
20380;DHT22;10349;48.666;8.948;2023-03-21T10:58:08;13.50;99.90
20380;DHT22;10349;48.666;8.948;2023-03-21T11:00:40;13.60;99.90
20380;DHT22;10349;48.666;8.948;2023-03-21T11:03:44;13.70;99.90
20380;DHT22;10349;48.666;8.948;2023-03-21T11:06:16;13.80;99.90
20380;DHT22;10349;48.666;8.948;2023-03-21T11:08:50;13.90;99.90
20380;DHT22;10349;48.666;8.948;2023-03-21T11:11:23;13.90;99.90
20380;DHT22;10349;48.666;8.948;2023-03-21T11:13:58;14.00;99.90
20380;DHT22;10349;48.666;8.948;2023-03-21T11:16:45;14.00;99.90
20380;DHT22;10349;48.666;8.948;2023-03-21T11:19:18;14.10;99.90
20380;DHT22;10349;48.666;8.948;2023-03-21T11:21:45;14.10;99.90
20380;DHT22;10349;48.666;8.948;2023-03-21T11:24:16;14.20;99.90
20380;DHT22;10349;48.666;8.948;2023-03-21T11:26:47;14.30;99.90
20380;DHT22;10349;48.666;8.948;2023-03-21T11:29:29;14.30;99.90
20380;DHT22;10349;48.666;8.948;2023-03-21T11:32:23;14.20;99.90
20380;DHT22;10349;48.666;8.948;2023-03-21T11:35:00;14.30;99.90
20380;DHT22;10349;48.666;8.948;2023-03-21T11:37:37;14.30;99.90
20380;DHT22;10349;48.666;8.948;2023-03-21T11:40:25;14.20;99.90
20380;DHT22;10349;48.666;8.948;2023-03-21T11:43:41;14.20;99.90
20380;DHT22;10349;48.666;8.948;2023-03-21T11:45:56;14.30;99.90
20380;DHT22;10349;48.666;8.948;2023-03-21T11:48:23;14.40;99.90
20380;DHT22;10349;48.666;8.948;2023-03-21T11:50:51;14.50;99.90
20380;DHT22;10349;48.666;8.948;2023-03-21T11:53:46;14.50;99.90
20380;DHT22;10349;48.666;8.948;2023-03-21T11:56:27;14.60;99.90
20380;DHT22;10349;48.666;8.948;2023-03-21T12:02:02;14.60;99.90
20380;DHT22;10349;48.666;8.948;2023-03-21T12:07:36;14.70;99.90
20380;DHT22;10349;48.666;8.948;2023-03-21T12:10:26;14.70;99.90
20380;DHT22;10349;48.666;8.948;2023-03-21T12:13:13;14.80;99.90
20380;DHT22;10349;48.666;8.948;2023-03-21T12:16:10;14.90;99.90
20380;DHT22;10349;48.666;8.948;2023-03-21T12:18:55;14.90;99.90
20380;DHT22;10349;48.666;8.948;2023-03-21T12:24:17;15.00;99.90
20380;DHT22;10349;48.666;8.948;2023-03-21T12:30:01;14.80;99.90
20380;DHT22;10349;48.666;8.948;2023-03-21T12:32:53;14.90;99.90
20380;DHT22;10349;48.666;8.948;2023-03-21T12:38:26;15.20;99.90
20380;DHT22;10349;48.666;8.948;2023-03-21T12:41:23;15.30;99.90
20380;DHT22;10349;48.666;8.948;2023-03-21T12:43:59;15.40;99.90
20380;DHT22;10349;48.666;8.948;2023-03-21T12:46:49;15.60;99.90
20380;DHT22;10349;48.666;8.948;2023-03-21T12:49:42;15.80;99.90
20380;DHT22;10349;48.666;8.948;2023-03-21T12:52:18;15.90;99.90
20380;DHT22;10349;48.666;8.948;2023-03-21T12:54:48;16.00;99.90
20380;DHT22;10349;48.666;8.948;2023-03-21T12:57:34;16.00;99.90
20380;DHT22;10349;48.666;8.948;2023-03-21T13:00:15;16.00;99.90
20380;DHT22;10349;48.666;8.948;2023-03-21T13:02:58;16.10;99.90
20380;DHT22;10349;48.666;8.948;2023-03-21T13:05:39;16.20;99.90
20380;DHT22;10349;48.666;8.948;2023-03-21T13:08:38;16.30;99.90
20380;DHT22;10349;48.666;8.948;2023-03-21T13:11:09;16.30;99.90
20380;DHT22;10349;48.666;8.948;2023-03-21T13:16:36;16.30;99.90
20380;DHT22;10349;48.666;8.948;2023-03-21T13:19:27;16.40;99.90
20380;DHT22;10349;48.666;8.948;2023-03-21T13:22:27;16.40;99.90
20380;DHT22;10349;48.666;8.948;2023-03-21T13:25:19;16.30;99.90
20380;DHT22;10349;48.666;8.948;2023-03-21T13:28:00;16.20;99.90
20380;DHT22;10349;48.666;8.948;2023-03-21T13:30:29;16.30;99.90
20380;DHT22;10349;48.666;8.948;2023-03-21T13:33:22;16.30;99.90
20380;DHT22;10349;48.666;8.948;2023-03-21T13:36:04;16.30;99.90
20380;DHT22;10349;48.666;8.948;2023-03-21T13:38:35;16.20;99.90
20380;DHT22;10349;48.666;8.948;2023-03-21T13:41:11;16.00;99.90
20380;DHT22;10349;48.666;8.948;2023-03-21T13:44:05;16.10;99.90
20380;DHT22;10349;48.666;8.948;2023-03-21T13:46:58;16.10;99.90
20380;DHT22;10349;48.666;8.948;2023-03-21T13:49:44;16.20;99.90
20380;DHT22;10349;48.666;8.948;2023-03-21T13:54:45;16.50;99.90
20380;DHT22;10349;48.666;8.948;2023-03-21T13:57:40;16.30;99.90
20380;DHT22;10349;48.666;8.948;2023-03-21T14:00:27;16.30;99.90
20380;DHT22;10349;48.666;8.948;2023-03-21T14:03:14;16.30;99.90
20380;DHT22;10349;48.666;8.948;2023-03-21T14:05:48;16.40;99.90
20380;DHT22;10349;48.666;8.948;2023-03-21T14:08:16;16.40;99.90
20380;DHT22;10349;48.666;8.948;2023-03-21T14:10:50;16.60;99.90
20380;DHT22;10349;48.666;8.948;2023-03-21T14:13:20;16.60;99.90
20380;DHT22;10349;48.666;8.948;2023-03-21T14:15:51;16.60;99.90
20380;DHT22;10349;48.666;8.948;2023-03-21T14:18:22;16.70;99.90
20380;DHT22;10349;48.666;8.948;2023-03-21T14:20:54;16.70;99.90
20380;DHT22;10349;48.666;8.948;2023-03-21T14:23:21;16.80;99.90
20380;DHT22;10349;48.666;8.948;2023-03-21T14:25:47;16.70;99.90
20380;DHT22;10349;48.666;8.948;2023-03-21T14:28:23;16.70;99.90
20380;DHT22;10349;48.666;8.948;2023-03-21T14:30:53;16.70;99.90
20380;DHT22;10349;48.666;8.948;2023-03-21T14:33:31;16.80;99.90
20380;DHT22;10349;48.666;8.948;2023-03-21T14:36:23;16.70;99.90
20380;DHT22;10349;48.666;8.948;2023-03-21T14:39:17;16.40;99.90
20380;DHT22;10349;48.666;8.948;2023-03-21T14:41:50;16.40;99.90
20380;DHT22;10349;48.666;8.948;2023-03-21T14:44:24;16.20;99.90
20380;DHT22;10349;48.666;8.948;2023-03-21T14:47:05;16.30;99.90
20380;DHT22;10349;48.666;8.948;2023-03-21T14:49:33;16.20;99.90
20380;DHT22;10349;48.666;8.948;2023-03-21T14:52:29;16.20;99.90
20380;DHT22;10349;48.666;8.948;2023-03-21T14:54:55;16.20;99.90
20380;DHT22;10349;48.666;8.948;2023-03-21T14:57:25;16.20;99.90
20380;DHT22;10349;48.666;8.948;2023-03-21T14:59:55;16.10;99.90
20380;DHT22;10349;48.666;8.948;2023-03-21T15:02:22;16.20;99.90
20380;DHT22;10349;48.666;8.948;2023-03-21T15:04:53;16.40;99.90
20380;DHT22;10349;48.666;8.948;2023-03-21T15:07:37;16.40;99.90
20380;DHT22;10349;48.666;8.948;2023-03-21T15:10:06;16.60;99.90
20380;DHT22;10349;48.666;8.948;2023-03-21T15:12:33;16.60;99.90
20380;DHT22;10349;48.666;8.948;2023-03-21T15:15:00;16.60;99.90
20380;DHT22;10349;48.666;8.948;2023-03-21T15:17:28;16.60;99.90
20380;DHT22;10349;48.666;8.948;2023-03-21T15:19:54;16.50;99.90
20380;DHT22;10349;48.666;8.948;2023-03-21T15:22:36;16.40;99.90
20380;DHT22;10349;48.666;8.948;2023-03-21T15:25:06;16.40;99.90
20380;DHT22;10349;48.666;8.948;2023-03-21T15:27:37;16.30;99.90
20380;DHT22;10349;48.666;8.948;2023-03-21T15:30:05;16.30;99.90
20380;DHT22;10349;48.666;8.948;2023-03-21T15:32:35;16.30;99.90
20380;DHT22;10349;48.666;8.948;2023-03-21T15:35:06;16.30;99.90
20380;DHT22;10349;48.666;8.948;2023-03-21T15:37:35;16.20;99.90
20380;DHT22;10349;48.666;8.948;2023-03-21T15:40:34;15.90;99.90
20380;DHT22;10349;48.666;8.948;2023-03-21T15:43:15;15.70;99.90
20380;DHT22;10349;48.666;8.948;2023-03-21T15:45:53;15.50;99.90
20380;DHT22;10349;48.666;8.948;2023-03-21T15:48:27;15.30;99.90
20380;DHT22;10349;48.666;8.948;2023-03-21T15:51:06;15.20;99.90
20380;DHT22;10349;48.666;8.948;2023-03-21T15:53:36;15.20;99.90
20380;DHT22;10349;48.666;8.948;2023-03-21T15:56:06;15.20;99.90
20380;DHT22;10349;48.666;8.948;2023-03-21T15:58:46;15.10;99.90
20380;DHT22;10349;48.666;8.948;2023-03-21T16:01:20;14.90;99.90
20380;DHT22;10349;48.666;8.948;2023-03-21T16:04:15;14.80;99.90
20380;DHT22;10349;48.666;8.948;2023-03-21T16:07:02;14.70;99.90
20380;DHT22;10349;48.666;8.948;2023-03-21T16:09:41;14.60;99.90
20380;DHT22;10349;48.666;8.948;2023-03-21T16:12:10;14.60;99.90
20380;DHT22;10349;48.666;8.948;2023-03-21T16:14:37;14.60;99.90
20380;DHT22;10349;48.666;8.948;2023-03-21T16:17:21;14.50;99.90
20380;DHT22;10349;48.666;8.948;2023-03-21T16:19:47;14.50;99.90
20380;DHT22;10349;48.666;8.948;2023-03-21T16:22:14;14.30;99.90
20380;DHT22;10349;48.666;8.948;2023-03-21T16:24:41;14.30;99.90
20380;DHT22;10349;48.666;8.948;2023-03-21T16:27:10;14.20;99.90
20380;DHT22;10349;48.666;8.948;2023-03-21T16:29:36;14.00;99.90
20380;DHT22;10349;48.666;8.948;2023-03-21T16:32:01;14.00;99.90
20380;DHT22;10349;48.666;8.948;2023-03-21T16:34:30;14.00;99.90
20380;DHT22;10349;48.666;8.948;2023-03-21T16:36:57;13.90;99.90
20380;DHT22;10349;48.666;8.948;2023-03-21T16:39:24;14.00;99.90
20380;DHT22;10349;48.666;8.948;2023-03-21T16:41:51;14.00;99.90
20380;DHT22;10349;48.666;8.948;2023-03-21T16:44:18;14.00;99.90
20380;DHT22;10349;48.666;8.948;2023-03-21T16:46:45;14.00;99.90
20380;DHT22;10349;48.666;8.948;2023-03-21T16:49:27;14.00;99.90
20380;DHT22;10349;48.666;8.948;2023-03-21T16:51:55;14.00;99.90
20380;DHT22;10349;48.666;8.948;2023-03-21T16:54:26;14.00;99.90
20380;DHT22;10349;48.666;8.948;2023-03-21T16:56:54;13.90;99.90
20380;DHT22;10349;48.666;8.948;2023-03-21T16:59:21;13.90;99.90
20380;DHT22;10349;48.666;8.948;2023-03-21T17:01:47;13.90;99.90
20380;DHT22;10349;48.666;8.948;2023-03-21T17:04:16;13.90;99.90